createdAt,value
2023-03-13T00:01:42.256Z,19.35
2023-03-13T00:04:09.126Z,19.21
2023-03-13T00:06:37.944Z,19.43
2023-03-13T00:09:06.630Z,19.29
2023-03-13T00:11:33.580Z,19.28
2023-03-13T00:14:02.643Z,19.30
2023-03-13T00:16:29.729Z,19.19
2023-03-13T00:18:57.971Z,19.38
2023-03-13T00:21:27.239Z,19.39
2023-03-13T00:23:54.295Z,19.36
2023-03-13T00:26:23.737Z,19.24
2023-03-13T00:28:50.901Z,19.23
2023-03-13T00:31:26.062Z,19.04
2023-03-13T00:33:55.355Z,18.05
2023-03-13T00:36:25.020Z,18.04
2023-03-13T00:38:53.180Z,18.25
2023-03-13T00:41:25.060Z,18.48
2023-03-13T00:43:52.501Z,18.52
2023-03-13T00:46:21.912Z,18.71
2023-03-13T00:48:49.162Z,18.38
2023-03-13T00:51:17.355Z,17.95
2023-03-13T00:53:45.095Z,17.88
2023-03-13T00:56:19.048Z,18.09
2023-03-13T00:58:47.107Z,18.29
2023-03-13T01:01:18.302Z,18.38
2023-03-13T01:04:09.590Z,18.35
2023-03-13T01:06:40.658Z,18.68
2023-03-13T01:09:09.324Z,18.10
2023-03-13T01:11:57.931Z,18.41
2023-03-13T01:14:24.473Z,18.54
2023-03-13T01:16:53.431Z,18.66
2023-03-13T01:19:20.022Z,18.36
2023-03-13T01:21:47.014Z,18.57
2023-03-13T01:24:13.821Z,18.68
2023-03-13T01:26:40.456Z,19.01
2023-03-13T01:29:07.280Z,18.23
2023-03-13T01:31:35.572Z,18.42
2023-03-13T01:34:05.270Z,18.25
2023-03-13T01:36:33.086Z,18.23
2023-03-13T01:39:00.897Z,17.98
2023-03-13T01:41:30.141Z,17.58
2023-03-13T01:43:57.579Z,17.40
2023-03-13T01:46:30.637Z,17.27
2023-03-13T01:49:35.859Z,17.16
2023-03-13T01:52:20.348Z,17.21
2023-03-13T01:55:05.593Z,17.49
2023-03-13T01:57:37.358Z,17.38
2023-03-13T02:00:16.498Z,17.43
2023-03-13T02:02:47.906Z,17.34
2023-03-13T02:05:16.233Z,17.29
2023-03-13T02:07:56.053Z,17.26
2023-03-13T02:10:23.599Z,17.47
2023-03-13T02:12:51.870Z,17.43
2023-03-13T02:15:21.134Z,17.39
2023-03-13T02:17:49.431Z,17.11
2023-03-13T02:20:18.719Z,17.35
2023-03-13T02:23:37.077Z,17.11
2023-03-13T02:26:03.964Z,17.04
2023-03-13T02:28:38.913Z,17.04
2023-03-13T02:31:10.431Z,16.84
2023-03-13T02:33:40.008Z,16.36
2023-03-13T02:36:08.096Z,16.22
2023-03-13T02:38:42.804Z,16.23
2023-03-13T02:41:10.134Z,16.21
2023-03-13T02:43:37.920Z,16.33
2023-03-13T02:46:17.296Z,15.99
2023-03-13T02:48:50.880Z,16.05
2023-03-13T02:51:27.859Z,16.17
2023-03-13T02:54:01.862Z,16.58
2023-03-13T02:56:31.599Z,16.56
2023-03-13T02:58:58.206Z,16.52
2023-03-13T03:01:26.245Z,16.50
2023-03-13T03:03:52.989Z,16.46
2023-03-13T03:06:19.597Z,16.66
2023-03-13T03:08:47.172Z,16.99
2023-03-13T03:11:13.827Z,16.79
2023-03-13T03:13:42.017Z,16.69
2023-03-13T03:16:10.598Z,16.56
2023-03-13T03:18:38.071Z,16.43
2023-03-13T03:21:06.206Z,16.70
2023-03-13T03:23:37.142Z,16.41
2023-03-13T03:26:05.624Z,16.24
2023-03-13T03:28:32.970Z,16.42
2023-03-13T03:31:06.349Z,16.40
2023-03-13T03:33:33.945Z,16.36
2023-03-13T03:36:07.190Z,16.39
2023-03-13T03:38:34.980Z,16.40
2023-03-13T03:41:02.077Z,16.58
2023-03-13T03:43:29.792Z,16.33
2023-03-13T03:45:56.785Z,16.49
2023-03-13T03:48:23.814Z,16.77
2023-03-13T03:50:50.419Z,16.88
2023-03-13T03:53:17.504Z,17.13
2023-03-13T03:55:44.838Z,17.01
2023-03-13T03:58:11.479Z,17.11
2023-03-13T04:00:58.232Z,17.07
2023-03-13T04:03:25.669Z,17.09
2023-03-13T04:05:52.931Z,17.25
2023-03-13T04:08:21.997Z,17.60
2023-03-13T04:10:49.060Z,17.44
2023-03-13T04:13:16.552Z,17.80
2023-03-13T04:15:43.342Z,17.98
2023-03-13T04:18:10.860Z,18.04
2023-03-13T04:20:37.656Z,18.16
2023-03-13T04:23:04.209Z,18.07
2023-03-13T04:25:30.955Z,18.25
2023-03-13T04:28:00.122Z,18.12
2023-03-13T04:30:33.802Z,18.01
2023-03-13T04:33:11.621Z,18.01
2023-03-13T04:35:44.344Z,18.05
2023-03-13T04:38:29.436Z,17.95
2023-03-13T04:41:25.584Z,18.10
2023-03-13T04:44:05.632Z,18.06
2023-03-13T04:46:43.060Z,18.17
2023-03-13T04:49:29.758Z,17.69
2023-03-13T04:52:19.625Z,17.48
2023-03-13T04:55:12.598Z,17.51
2023-03-13T04:57:56.358Z,17.78
2023-03-13T05:00:40.705Z,18.36
2023-03-13T05:03:42.724Z,17.98
2023-03-13T05:06:35.731Z,18.12
2023-03-13T05:09:25.346Z,18.19
2023-03-13T05:12:01.521Z,18.35
2023-03-13T05:14:46.482Z,18.36
2023-03-13T05:17:54.193Z,18.70
2023-03-13T05:20:39.696Z,18.73
2023-03-13T05:23:24.618Z,18.72
2023-03-13T05:26:29.536Z,18.79
2023-03-13T05:29:10.710Z,18.87
2023-03-13T05:31:46.933Z,18.68
2023-03-13T05:34:22.694Z,18.77
2023-03-13T05:36:58.066Z,18.93
2023-03-13T05:39:55.867Z,19.09
2023-03-13T05:42:57.714Z,19.20
2023-03-13T05:45:43.139Z,19.36
2023-03-13T05:48:32.695Z,19.36
2023-03-13T05:51:22.289Z,19.81
2023-03-13T05:53:56.372Z,19.50
2023-03-13T05:56:52.244Z,19.98
2023-03-13T05:59:41.890Z,19.77
2023-03-13T06:02:40.015Z,20.13
2023-03-13T06:05:09.642Z,19.88
2023-03-13T06:07:37.786Z,19.90
2023-03-13T06:10:04.879Z,20.15
2023-03-13T06:12:31.765Z,20.08
2023-03-13T06:14:58.898Z,20.20
2023-03-13T06:17:48.340Z,20.18
2023-03-13T06:20:15.364Z,20.34
2023-03-13T06:22:42.306Z,20.35
2023-03-13T06:25:09.758Z,20.28
2023-03-13T06:27:36.494Z,20.22
2023-03-13T06:30:03.937Z,20.43
2023-03-13T06:32:30.665Z,20.39
2023-03-13T06:34:57.369Z,20.25
2023-03-13T06:37:23.989Z,20.39
2023-03-13T06:39:50.533Z,20.31
2023-03-13T06:42:17.139Z,20.52
2023-03-13T06:44:44.657Z,20.30
2023-03-13T06:47:12.983Z,20.60
2023-03-13T06:49:40.828Z,20.70
2023-03-13T06:52:07.355Z,20.58
2023-03-13T06:54:34.092Z,20.59
2023-03-13T06:57:00.724Z,20.68
2023-03-13T06:59:27.369Z,20.61
2023-03-13T07:01:53.967Z,20.78
2023-03-13T07:04:20.756Z,20.78
2023-03-13T07:06:47.400Z,20.57
2023-03-13T07:09:14.040Z,20.45
2023-03-13T07:11:40.548Z,20.64
2023-03-13T07:14:16.538Z,20.84
2023-03-13T07:16:45.415Z,21.19
2023-03-13T07:19:12.407Z,21.19
2023-03-13T07:21:39.036Z,21.36
2023-03-13T07:24:05.995Z,21.10
2023-03-13T07:26:32.650Z,21.18
2023-03-13T07:28:59.510Z,21.44
2023-03-13T07:31:26.404Z,21.21
2023-03-13T07:33:56.246Z,21.49
2023-03-13T07:36:23.110Z,21.24
2023-03-13T07:38:50.974Z,21.66
2023-03-13T07:41:18.519Z,21.41
2023-03-13T07:43:46.142Z,21.47
2023-03-13T07:46:15.817Z,21.63
2023-03-13T07:48:43.185Z,21.57
2023-03-13T07:51:18.297Z,21.43
2023-03-13T07:53:47.662Z,21.46
2023-03-13T07:56:16.933Z,21.48
2023-03-13T07:58:44.184Z,21.49
2023-03-13T08:01:23.594Z,21.68
2023-03-13T08:03:52.112Z,21.56
2023-03-13T08:06:23.211Z,21.58
2023-03-13T08:08:51.114Z,20.71
2023-03-13T08:11:25.671Z,21.22
2023-03-13T08:13:53.443Z,21.24
2023-03-13T08:16:22.250Z,21.36
2023-03-13T08:18:52.165Z,21.46
2023-03-13T08:21:21.821Z,21.39
2023-03-13T08:23:49.359Z,20.66
2023-03-13T08:26:18.703Z,20.55
2023-03-13T08:28:48.058Z,20.49
2023-03-13T08:31:20.924Z,20.59
2023-03-13T08:33:48.499Z,20.68
2023-03-13T08:36:18.122Z,20.70
2023-03-13T08:38:46.648Z,20.57
2023-03-13T08:41:22.818Z,20.58
2023-03-13T08:43:51.746Z,20.86
2023-03-13T08:46:19.765Z,20.87
2023-03-13T08:48:54.661Z,21.01
2023-03-13T08:51:24.114Z,21.02
2023-03-13T08:53:52.239Z,21.22
2023-03-13T08:56:28.467Z,21.12
2023-03-13T08:58:58.229Z,20.86
2023-03-13T09:01:27.878Z,20.78
2023-03-13T09:03:55.051Z,20.81
2023-03-13T09:06:21.656Z,20.95
2023-03-13T09:08:48.583Z,21.37
2023-03-13T09:11:18.166Z,21.37
2023-03-13T09:13:48.248Z,21.79
2023-03-13T09:16:22.099Z,21.70
2023-03-13T09:18:50.519Z,22.04
2023-03-13T09:21:22.708Z,22.27
2023-03-13T09:23:50.129Z,22.61
2023-03-13T09:26:19.951Z,22.55
2023-03-13T09:28:48.188Z,22.65
2023-03-13T09:31:21.159Z,22.53
2023-03-13T09:33:50.204Z,22.41
2023-03-13T09:36:20.834Z,22.78
2023-03-13T09:38:48.575Z,23.12
2023-03-13T09:41:18.048Z,23.27
2023-03-13T09:44:04.962Z,23.36
2023-03-13T09:46:36.081Z,23.91
2023-03-13T09:49:18.150Z,23.88
2023-03-13T09:51:50.928Z,23.76
2023-03-13T09:54:46.545Z,23.88
2023-03-13T09:57:22.786Z,23.91
2023-03-13T09:59:55.588Z,23.86
2023-03-13T10:02:29.860Z,23.68
2023-03-13T10:05:05.813Z,23.23
2023-03-13T10:07:32.432Z,23.52
2023-03-13T10:10:01.475Z,23.96
2023-03-13T10:12:31.414Z,24.26
2023-03-13T10:15:20.923Z,24.19
2023-03-13T10:17:47.885Z,24.77
2023-03-13T10:20:29.770Z,24.51
2023-03-13T10:23:05.893Z,24.64
2023-03-13T10:25:40.401Z,24.54
2023-03-13T10:28:12.682Z,24.45
2023-03-13T10:30:43.523Z,24.33
2023-03-13T10:33:13.199Z,24.37
2023-03-13T10:35:43.626Z,24.01
2023-03-13T10:38:17.423Z,23.94
2023-03-13T10:40:56.930Z,24.78
2023-03-13T10:43:26.671Z,24.89
2023-03-13T10:45:53.497Z,24.83
2023-03-13T10:48:30.453Z,24.81
2023-03-13T10:51:00.071Z,24.76
2023-03-13T10:53:29.893Z,24.58
2023-03-13T10:56:08.627Z,24.68
2023-03-13T10:58:41.378Z,25.21
2023-03-13T11:01:32.339Z,25.16
2023-03-13T11:04:18.271Z,25.74
2023-03-13T11:06:52.418Z,25.37
2023-03-13T11:09:19.564Z,25.17
2023-03-13T11:12:01.010Z,25.07
2023-03-13T11:14:28.020Z,24.81
2023-03-13T11:17:26.960Z,25.05
2023-03-13T11:19:59.700Z,24.91
2023-03-13T11:22:48.699Z,25.16
2023-03-13T11:25:39.713Z,25.23
2023-03-13T11:28:33.111Z,24.62
2023-03-13T11:31:11.520Z,24.43
2023-03-13T11:33:50.954Z,24.56
2023-03-13T11:37:04.637Z,25.05
2023-03-13T11:39:48.510Z,24.99
2023-03-13T11:43:24.099Z,24.89
2023-03-13T11:46:21.195Z,24.75
2023-03-13T11:49:11.293Z,24.81
2023-03-13T11:52:16.757Z,24.52
2023-03-13T11:54:52.753Z,25.07
2023-03-13T11:57:35.329Z,25.21
2023-03-13T12:00:26.732Z,25.18
2023-03-13T12:03:05.988Z,25.24
2023-03-13T12:05:45.553Z,25.11
2023-03-13T12:08:18.429Z,25.12
2023-03-13T12:11:06.558Z,25.28
2023-03-13T12:13:39.065Z,24.93
2023-03-13T12:16:21.586Z,25.23
2023-03-13T12:18:49.263Z,25.36
2023-03-13T12:21:30.631Z,25.27
2023-03-13T12:24:23.029Z,25.16
2023-03-13T12:26:52.524Z,24.79
2023-03-13T12:29:28.852Z,24.97
2023-03-13T12:32:37.413Z,25.73
2023-03-13T12:35:28.782Z,25.36
2023-03-13T12:38:11.719Z,25.36
2023-03-13T12:40:45.061Z,25.00
2023-03-13T12:43:20.345Z,25.11
2023-03-13T12:46:04.701Z,25.42
2023-03-13T12:49:05.867Z,25.56
2023-03-13T12:52:12.082Z,25.74
2023-03-13T12:54:45.230Z,25.59
2023-03-13T12:57:43.286Z,25.46
2023-03-13T13:00:22.625Z,25.49
2023-03-13T13:03:06.526Z,25.68
2023-03-13T13:05:33.287Z,25.72
2023-03-13T13:07:59.996Z,25.61
2023-03-13T13:10:28.761Z,25.63
2023-03-13T13:13:13.742Z,25.36
2023-03-13T13:15:47.976Z,25.49
2023-03-13T13:18:27.247Z,25.34
2023-03-13T13:21:02.777Z,25.55
2023-03-13T13:23:46.878Z,25.61
2023-03-13T13:26:36.292Z,25.65
2023-03-13T13:29:12.046Z,25.35
2023-03-13T13:31:47.537Z,25.69
2023-03-13T13:34:54.632Z,25.58
2023-03-13T13:37:21.186Z,25.65
2023-03-13T13:39:53.509Z,25.80
2023-03-13T13:42:32.359Z,25.39
2023-03-13T13:45:22.488Z,25.48
2023-03-13T13:47:50.951Z,25.54
2023-03-13T13:50:20.518Z,24.82
2023-03-13T13:52:49.022Z,25.19
2023-03-13T13:55:21.919Z,25.08
2023-03-13T13:57:49.905Z,24.67
2023-03-13T14:00:24.783Z,25.08
2023-03-13T14:02:54.199Z,25.09
2023-03-13T14:05:30.542Z,25.16
2023-03-13T14:08:03.466Z,25.28
2023-03-13T14:10:40.788Z,25.18
2023-03-13T14:13:21.486Z,25.28
2023-03-13T14:15:53.018Z,24.97
2023-03-13T14:18:26.009Z,25.35
2023-03-13T14:20:56.212Z,25.26
2023-03-13T14:23:34.942Z,25.02
2023-03-13T14:26:17.710Z,24.94
2023-03-13T14:28:53.681Z,25.36
2023-03-13T14:31:28.678Z,24.95
2023-03-13T14:33:57.187Z,24.89
2023-03-13T14:36:24.197Z,25.12
2023-03-13T14:38:53.028Z,25.10
2023-03-13T14:41:30.526Z,25.23
2023-03-13T14:44:06.070Z,24.97
2023-03-13T14:46:35.888Z,24.81
2023-03-13T14:49:17.047Z,24.86
2023-03-13T14:51:44.066Z,25.05
2023-03-13T14:54:49.479Z,25.25
2023-03-13T14:57:21.224Z,25.36
2023-03-13T14:59:49.177Z,25.18
2023-03-13T15:02:24.250Z,25.15
2023-03-13T15:05:00.091Z,25.13
2023-03-13T15:07:36.471Z,25.01
2023-03-13T15:10:22.326Z,25.11
2023-03-13T15:12:49.522Z,25.03
2023-03-13T15:15:16.462Z,25.17
2023-03-13T15:17:43.293Z,25.05
2023-03-13T15:20:15.527Z,24.95
2023-03-13T15:22:46.092Z,25.26
2023-03-13T15:25:21.499Z,25.09
2023-03-13T15:27:50.081Z,25.18
2023-03-13T15:30:18.934Z,24.95
2023-03-13T15:32:46.819Z,25.17
2023-03-13T15:35:33.338Z,25.44
2023-03-13T15:38:01.596Z,25.53
2023-03-13T15:40:30.788Z,25.51
2023-03-13T15:42:59.396Z,25.72
2023-03-13T15:45:26.131Z,25.36
2023-03-13T15:47:53.303Z,25.56
2023-03-13T15:50:22.497Z,25.22
2023-03-13T15:52:49.119Z,25.46
2023-03-13T15:55:15.700Z,25.59
2023-03-13T15:57:46.051Z,25.66
2023-03-13T16:00:24.772Z,25.74
2023-03-13T16:02:51.461Z,25.80
2023-03-13T16:05:18.160Z,25.54
2023-03-13T16:07:45.048Z,25.45
2023-03-13T16:10:17.005Z,25.42
2023-03-13T16:12:43.632Z,25.62
2023-03-13T16:15:10.897Z,25.62
2023-03-13T16:17:37.546Z,25.53
2023-03-13T16:20:09.439Z,25.27
2023-03-13T16:22:36.137Z,25.18
2023-03-13T16:25:02.746Z,25.14
2023-03-13T16:27:29.477Z,25.18
2023-03-13T16:29:55.978Z,25.02
2023-03-13T16:32:24.632Z,24.79
2023-03-13T16:34:51.237Z,25.00
2023-03-13T16:37:19.633Z,25.16
2023-03-13T16:39:48.064Z,25.20
2023-03-13T16:42:14.696Z,24.97
2023-03-13T16:44:41.446Z,24.84
2023-03-13T16:47:31.608Z,24.88
2023-03-13T16:49:58.175Z,24.67
2023-03-13T16:52:24.741Z,24.53
2023-03-13T16:54:51.348Z,24.19
2023-03-13T16:57:22.992Z,24.24
2023-03-13T16:59:50.336Z,24.31
2023-03-13T17:02:21.015Z,24.36
2023-03-13T17:04:47.967Z,24.27
2023-03-13T17:07:18.998Z,24.29
2023-03-13T17:09:46.013Z,24.21
2023-03-13T17:12:12.606Z,24.04
2023-03-13T17:14:39.212Z,24.13
2023-03-13T17:17:06.673Z,24.34
2023-03-13T17:19:33.259Z,24.28
2023-03-13T17:21:59.797Z,24.07
2023-03-13T17:24:26.336Z,24.15
2023-03-13T17:26:52.909Z,24.19
2023-03-13T17:29:19.501Z,24.13
2023-03-13T17:31:46.070Z,24.29
2023-03-13T17:34:13.061Z,24.27
2023-03-13T17:36:39.895Z,24.24
2023-03-13T17:39:08.738Z,23.88
2023-03-13T17:41:36.033Z,24.23
2023-03-13T17:44:05.735Z,24.03
2023-03-13T17:46:53.528Z,23.88
2023-03-13T17:49:23.095Z,23.94
2023-03-13T17:51:51.186Z,24.01
2023-03-13T17:54:18.739Z,23.72
2023-03-13T17:56:45.633Z,23.80
2023-03-13T17:59:17.619Z,23.87
2023-03-13T18:01:44.921Z,23.88
2023-03-13T18:04:12.955Z,23.88
2023-03-13T18:06:45.580Z,23.98
2023-03-13T18:09:15.206Z,23.63
2023-03-13T18:11:42.218Z,23.66
2023-03-13T18:14:08.923Z,23.79
2023-03-13T18:16:43.030Z,23.98
2023-03-13T18:19:22.593Z,23.77
2023-03-13T18:21:54.170Z,24.02
2023-03-13T18:24:21.573Z,23.94
2023-03-13T18:26:49.411Z,24.08
2023-03-13T18:29:26.342Z,24.25
2023-03-13T18:31:58.503Z,24.11
2023-03-13T18:34:25.763Z,23.91
2023-03-13T18:36:54.120Z,23.93
2023-03-13T18:39:21.317Z,23.71
2023-03-13T18:41:49.316Z,23.72
2023-03-13T18:44:16.233Z,23.98
2023-03-13T18:46:43.784Z,24.01
2023-03-13T18:49:21.168Z,24.00
2023-03-13T18:51:49.269Z,23.87
2023-03-13T18:54:15.934Z,23.87
2023-03-13T18:56:44.606Z,23.97
2023-03-13T18:59:17.732Z,23.78
2023-03-13T19:01:46.648Z,23.83
2023-03-13T19:04:13.190Z,24.32
2023-03-13T19:06:40.441Z,23.23
2023-03-13T19:09:41.127Z,23.11
2023-03-13T19:12:00.973Z,23.30
2023-03-13T19:14:27.476Z,23.53
2023-03-13T19:16:56.037Z,23.48
2023-03-13T19:19:24.321Z,23.60
2023-03-13T19:21:52.317Z,23.60
2023-03-13T19:24:19.129Z,23.53
2023-03-13T19:26:49.466Z,23.74
2023-03-13T19:29:24.039Z,23.54
2023-03-13T19:31:50.751Z,23.52
2023-03-13T19:34:17.359Z,23.66
2023-03-13T19:36:46.715Z,23.69
2023-03-13T19:39:23.386Z,23.10
2023-03-13T19:41:50.500Z,23.11
2023-03-13T19:44:18.060Z,22.98
2023-03-13T19:46:45.346Z,22.78
2023-03-13T19:49:17.178Z,22.76
2023-03-13T19:51:44.228Z,22.89
2023-03-13T19:54:11.647Z,23.16
2023-03-13T19:56:40.348Z,23.39
2023-03-13T19:59:12.945Z,23.32
2023-03-13T20:01:39.556Z,23.38
2023-03-13T20:04:06.155Z,23.45
2023-03-13T20:06:34.616Z,23.39
2023-03-13T20:09:03.932Z,23.10
2023-03-13T20:11:31.166Z,23.00
2023-03-13T20:13:58.060Z,23.12
2023-03-13T20:16:27.500Z,22.90
2023-03-13T20:18:57.650Z,22.81
2023-03-13T20:21:28.261Z,22.65
2023-03-13T20:23:55.169Z,22.66
2023-03-13T20:26:21.779Z,22.69
2023-03-13T20:28:51.847Z,22.41
2023-03-13T20:31:20.719Z,22.21
2023-03-13T20:33:47.374Z,22.27
2023-03-13T20:36:15.994Z,22.47
2023-03-13T20:38:43.613Z,22.54
2023-03-13T20:41:10.944Z,22.55
2023-03-13T20:43:38.212Z,22.60
2023-03-13T20:46:09.079Z,22.46
2023-03-13T20:48:38.980Z,22.46
2023-03-13T20:51:07.516Z,22.39
2023-03-13T20:53:39.433Z,22.44
2023-03-13T20:56:07.604Z,22.20
2023-03-13T20:58:35.288Z,22.30
2023-03-13T21:01:03.401Z,22.33
2023-03-13T21:03:31.780Z,22.25
2023-03-13T21:05:58.342Z,22.43
2023-03-13T21:08:24.875Z,22.27
2023-03-13T21:10:51.426Z,22.13
2023-03-13T21:13:18.062Z,22.66
2023-03-13T21:15:44.644Z,22.65
2023-03-13T21:18:11.160Z,22.81
2023-03-13T21:20:38.045Z,23.07
2023-03-13T21:23:04.597Z,22.89
2023-03-13T21:25:31.381Z,22.96
2023-03-13T21:27:58.055Z,22.96
2023-03-13T21:30:24.647Z,22.73
2023-03-13T21:32:51.245Z,22.78
2023-03-13T21:35:17.944Z,22.94
2023-03-13T21:37:44.648Z,23.00
2023-03-13T21:40:12.488Z,22.98
2023-03-13T21:42:39.416Z,23.04
2023-03-13T21:45:07.332Z,22.99
2023-03-13T21:47:36.879Z,23.19
2023-03-13T21:50:08.118Z,23.14
2023-03-13T21:52:40.807Z,23.19
2023-03-13T21:55:11.729Z,23.01
2023-03-13T21:57:38.781Z,22.93
2023-03-13T22:00:08.048Z,22.81
2023-03-13T22:02:37.285Z,22.41
2023-03-13T22:05:05.104Z,22.53
2023-03-13T22:07:31.819Z,22.66
2023-03-13T22:09:58.975Z,22.64
2023-03-13T22:12:25.745Z,22.48
2023-03-13T22:14:53.345Z,22.41
2023-03-13T22:17:20.628Z,22.48
2023-03-13T22:19:47.288Z,22.43
2023-03-13T22:22:14.518Z,22.35
2023-03-13T22:24:41.335Z,22.28
2023-03-13T22:27:10.052Z,21.75
2023-03-13T22:29:36.696Z,22.32
2023-03-13T22:32:04.380Z,22.15
2023-03-13T22:34:31.087Z,22.06
2023-03-13T22:36:57.715Z,21.89
2023-03-13T22:39:24.249Z,21.61
2023-03-13T22:41:50.923Z,21.87
2023-03-13T22:44:17.424Z,21.89
2023-03-13T22:46:43.996Z,21.37
2023-03-13T22:49:10.555Z,21.50
2023-03-13T22:51:37.163Z,21.12
2023-03-13T22:54:03.848Z,22.02
2023-03-13T22:56:30.441Z,22.19
2023-03-13T22:58:57.074Z,22.01
2023-03-13T23:01:24.002Z,21.88
2023-03-13T23:03:50.544Z,21.88
2023-03-13T23:06:19.897Z,22.06
2023-03-13T23:08:46.776Z,21.99
2023-03-13T23:11:13.501Z,21.98
2023-03-13T23:13:40.436Z,22.10
2023-03-13T23:16:09.130Z,21.72
2023-03-13T23:18:35.932Z,21.97
2023-03-13T23:21:07.983Z,21.86
2023-03-13T23:23:34.889Z,21.75
2023-03-13T23:26:03.039Z,21.80
2023-03-13T23:28:29.569Z,21.94
2023-03-13T23:30:56.102Z,21.73
2023-03-13T23:33:22.715Z,21.88
2023-03-13T23:35:49.225Z,21.82
2023-03-13T23:38:18.326Z,21.60
2023-03-13T23:40:45.052Z,21.61
2023-03-13T23:43:11.716Z,21.63
2023-03-13T23:45:38.248Z,21.64
2023-03-13T23:48:05.133Z,21.24
2023-03-13T23:50:31.659Z,20.95
2023-03-13T23:52:58.191Z,21.01
2023-03-13T23:55:24.796Z,20.93
2023-03-13T23:57:51.391Z,21.21
